169-й км

Карта отелей и гостиниц, располагающихся рядом с аэропортом 169-й км :

169-й км Новгородская область 59° 2' 47.04" N, 33° 34' 29.0388" E
169-й км Новгородская область 59° 2' 47.04" N, 33° 34' 29.0388" E
Код аэродрома ИКАО
HEZ2
Код аэродрома RU
ХЕЗ2
Координаты
N59.04640° E033.57473°
Превышение над уровнем моря
202
Основная полоса
01/19
Курс магнитный
008,9/188,9
Длина основной ВПП
20
Ширина основной ВПП
20
Покрытие основной ВПП
Твёрдое
Освещение ВПП
Нет
Тип: 
Вертодром
Класс аэродрома: 
Принадлежность: 
ГА
Статус: 
Действующий
Сайт: 
E-mail аэродрома: 
Страна: 
Россия
Регион: 
Новгородская область
Город: 
Дополнительная информация: 
Оператор: нет данных.

Найти трансфер

С помощью этой формы Вы можете найти трансфер из аэропорта 169-й км в город, аэропорт или вокзал:

Карта места

Javascript is required to view this map.

Погода в аэропортах:

Авиационная погода в Иркутске

Регион: 
Погода METAR: 
UIII 131200Z 02008MPS 9000 -SHRA OVC009CB 03/02 Q1014 R30/60D NOSIG RMK QBB270 QFE716/0955
Время наблюдения
2021-04-13T12:00:00Z
Температура C
3.0
Точка росы
2.0
Направление ветра
20
Скорость ветра (узлы)
16
Метео видимость
5.59
Явления погоды
-SHRA
Условия полета
IFR
Аэропорт подробнее: 

Авиационная погода в Тбилиси

Регион: 
Погода METAR: 
UGTB 131200Z 20005KT 6000 -TSRA BR FEW008 BKN032CB OVC036 11/10 Q1019 R13R/290054 NOSIG
Время наблюдения
2021-04-13T12:00:00Z
Температура C
11.0
Точка росы
10.0
Направление ветра
200
Скорость ветра (узлы)
5
Метео видимость
3.73
Явления погоды
-TSRA BR
Условия полета
MVFR

Авиационная погода в Кутаиси

Регион: 
Погода METAR: 
UGKO 131200Z 27008KT 9999 -RA BKN027 OVC038 09/08 Q1021 R07/29//50 NOSIG
Время наблюдения
2021-04-13T12:00:00Z
Температура C
9.0
Точка росы
8.0
Направление ветра
270
Скорость ветра (узлы)
8
Метео видимость
6.21
Явления погоды
-RA
Условия полета
MVFR

Авиационная погода в Угольном

Регион: 
Погода METAR: 
UHMA 131200Z 36008MPS 4400 -SN DRSN SCT038 BKN047 M13/M14 Q1009 REBLSN RESN R01/////// NOSIG RMK TDZ R01/36008G09MPS END R01/36005G07MPS QFE753/1004
Время наблюдения
2021-04-13T12:00:00Z
Температура C
-13.0
Точка росы
-14.0
Направление ветра
360
Скорость ветра (узлы)
16
Метео видимость
2.73
Явления погоды
-SN DRSN SN
Условия полета
IFR
Аэропорт подробнее: